sensor_id;sensor_type;location;lat;lon;timestamp;P1;durP1;ratioP1;P2;durP2;ratioP2
5650;SDS011;40241;52.684;9.758;2022-11-15T00:01:09;9.70;;;7.00;;
5650;SDS011;40241;52.684;9.758;2022-11-15T00:03:36;10.30;;;7.00;;
5650;SDS011;40241;52.684;9.758;2022-11-15T00:06:03;15.40;;;7.67;;
5650;SDS011;40241;52.684;9.758;2022-11-15T00:08:30;8.50;;;6.30;;
5650;SDS011;40241;52.684;9.758;2022-11-15T00:10:56;8.70;;;6.60;;
5650;SDS011;40241;52.684;9.758;2022-11-15T00:13:23;9.10;;;6.77;;
5650;SDS011;40241;52.684;9.758;2022-11-15T00:15:48;8.97;;;6.70;;
5650;SDS011;40241;52.684;9.758;2022-11-15T00:18:14;7.50;;;5.90;;
5650;SDS011;40241;52.684;9.758;2022-11-15T00:20:40;8.90;;;6.47;;
5650;SDS011;40241;52.684;9.758;2022-11-15T00:23:06;6.70;;;6.00;;
5650;SDS011;40241;52.684;9.758;2022-11-15T00:25:32;8.20;;;6.23;;
5650;SDS011;40241;52.684;9.758;2022-11-15T00:27:58;8.10;;;5.93;;
5650;SDS011;40241;52.684;9.758;2022-11-15T00:30:25;8.00;;;6.60;;
5650;SDS011;40241;52.684;9.758;2022-11-15T00:32:51;8.30;;;6.17;;
5650;SDS011;40241;52.684;9.758;2022-11-15T00:35:17;9.23;;;7.40;;
5650;SDS011;40241;52.684;9.758;2022-11-15T00:37:43;8.73;;;5.50;;
5650;SDS011;40241;52.684;9.758;2022-11-15T00:40:09;8.07;;;6.10;;
5650;SDS011;40241;52.684;9.758;2022-11-15T00:42:35;8.40;;;5.30;;
5650;SDS011;40241;52.684;9.758;2022-11-15T00:45:01;8.27;;;5.73;;
5650;SDS011;40241;52.684;9.758;2022-11-15T00:47:27;8.13;;;5.77;;
5650;SDS011;40241;52.684;9.758;2022-11-15T00:49:52;7.70;;;6.33;;
5650;SDS011;40241;52.684;9.758;2022-11-15T00:52:17;8.13;;;5.90;;
5650;SDS011;40241;52.684;9.758;2022-11-15T00:54:43;6.63;;;5.83;;
5650;SDS011;40241;52.684;9.758;2022-11-15T00:57:08;8.17;;;6.50;;
5650;SDS011;40241;52.684;9.758;2022-11-15T00:59:34;6.40;;;5.20;;
5650;SDS011;40241;52.684;9.758;2022-11-15T01:01:59;7.30;;;5.97;;
5650;SDS011;40241;52.684;9.758;2022-11-15T01:04:26;7.73;;;5.80;;
5650;SDS011;40241;52.684;9.758;2022-11-15T01:06:51;8.00;;;6.20;;
5650;SDS011;40241;52.684;9.758;2022-11-15T01:09:17;7.00;;;5.60;;
5650;SDS011;40241;52.684;9.758;2022-11-15T01:11:42;6.70;;;5.60;;
5650;SDS011;40241;52.684;9.758;2022-11-15T01:14:08;7.30;;;5.73;;
5650;SDS011;40241;52.684;9.758;2022-11-15T01:16:33;6.43;;;5.00;;
5650;SDS011;40241;52.684;9.758;2022-11-15T01:18:59;7.00;;;4.90;;
5650;SDS011;40241;52.684;9.758;2022-11-15T01:21:25;6.50;;;5.17;;
5650;SDS011;40241;52.684;9.758;2022-11-15T01:23:54;6.53;;;4.90;;
5650;SDS011;40241;52.684;9.758;2022-11-15T01:26:20;5.33;;;4.70;;
5650;SDS011;40241;52.684;9.758;2022-11-15T01:28:46;6.20;;;5.23;;
5650;SDS011;40241;52.684;9.758;2022-11-15T01:31:12;6.63;;;5.07;;
5650;SDS011;40241;52.684;9.758;2022-11-15T01:33:42;7.20;;;5.77;;
5650;SDS011;40241;52.684;9.758;2022-11-15T01:36:10;7.40;;;5.10;;
5650;SDS011;40241;52.684;9.758;2022-11-15T01:38:41;6.20;;;5.23;;
5650;SDS011;40241;52.684;9.758;2022-11-15T01:41:11;7.23;;;5.00;;
5650;SDS011;40241;52.684;9.758;2022-11-15T01:43:42;8.50;;;4.57;;
5650;SDS011;40241;52.684;9.758;2022-11-15T01:48:57;6.20;;;4.83;;
5650;SDS011;40241;52.684;9.758;2022-11-15T01:51:26;6.37;;;5.17;;
5650;SDS011;40241;52.684;9.758;2022-11-15T01:53:57;5.20;;;4.70;;
5650;SDS011;40241;52.684;9.758;2022-11-15T01:56:27;5.30;;;4.80;;
5650;SDS011;40241;52.684;9.758;2022-11-15T01:58:58;4.93;;;4.50;;
5650;SDS011;40241;52.684;9.758;2022-11-15T02:01:27;5.00;;;4.30;;
5650;SDS011;40241;52.684;9.758;2022-11-15T02:03:57;5.30;;;4.47;;
5650;SDS011;40241;52.684;9.758;2022-11-15T02:06:25;5.97;;;5.00;;
5650;SDS011;40241;52.684;9.758;2022-11-15T02:08:51;7.70;;;4.87;;
5650;SDS011;40241;52.684;9.758;2022-11-15T02:11:17;7.00;;;5.10;;
5650;SDS011;40241;52.684;9.758;2022-11-15T02:13:43;6.07;;;4.53;;
5650;SDS011;40241;52.684;9.758;2022-11-15T02:16:13;5.73;;;4.70;;
5650;SDS011;40241;52.684;9.758;2022-11-15T02:21:51;5.63;;;4.67;;
5650;SDS011;40241;52.684;9.758;2022-11-15T02:36:01;11.87;;;4.60;;
5650;SDS011;40241;52.684;9.758;2022-11-15T02:41:03;6.20;;;4.70;;
5650;SDS011;40241;52.684;9.758;2022-11-15T02:46:30;5.00;;;4.30;;
5650;SDS011;40241;52.684;9.758;2022-11-15T02:49:15;4.70;;;4.00;;
5650;SDS011;40241;52.684;9.758;2022-11-15T02:51:41;6.43;;;4.10;;
5650;SDS011;40241;52.684;9.758;2022-11-15T02:54:15;5.37;;;4.00;;
5650;SDS011;40241;52.684;9.758;2022-11-15T02:56:46;4.77;;;4.37;;
5650;SDS011;40241;52.684;9.758;2022-11-15T02:59:13;6.13;;;4.70;;
5650;SDS011;40241;52.684;9.758;2022-11-15T03:04:51;4.40;;;4.00;;
5650;SDS011;40241;52.684;9.758;2022-11-15T03:07:24;5.20;;;4.50;;
5650;SDS011;40241;52.684;9.758;2022-11-15T03:10:24;5.50;;;4.37;;
5650;SDS011;40241;52.684;9.758;2022-11-15T03:15:59;5.83;;;3.77;;
5650;SDS011;40241;52.684;9.758;2022-11-15T03:18:34;4.50;;;3.90;;
5650;SDS011;40241;52.684;9.758;2022-11-15T03:21:04;6.40;;;4.50;;
5650;SDS011;40241;52.684;9.758;2022-11-15T03:23:34;8.87;;;4.90;;
5650;SDS011;40241;52.684;9.758;2022-11-15T03:26:01;4.77;;;4.30;;
5650;SDS011;40241;52.684;9.758;2022-11-15T03:28:39;5.87;;;4.50;;
5650;SDS011;40241;52.684;9.758;2022-11-15T03:31:10;5.53;;;4.77;;
5650;SDS011;40241;52.684;9.758;2022-11-15T03:33:57;5.00;;;4.30;;
5650;SDS011;40241;52.684;9.758;2022-11-15T03:36:25;5.50;;;4.70;;
5650;SDS011;40241;52.684;9.758;2022-11-15T03:38:53;5.57;;;3.83;;
5650;SDS011;40241;52.684;9.758;2022-11-15T03:41:47;6.97;;;5.27;;
5650;SDS011;40241;52.684;9.758;2022-11-15T03:44:20;4.77;;;4.00;;
5650;SDS011;40241;52.684;9.758;2022-11-15T03:47:08;3.60;;;3.30;;
5650;SDS011;40241;52.684;9.758;2022-11-15T03:49:38;4.00;;;3.60;;
5650;SDS011;40241;52.684;9.758;2022-11-15T03:52:09;5.50;;;3.40;;
5650;SDS011;40241;52.684;9.758;2022-11-15T03:54:36;4.50;;;3.80;;
5650;SDS011;40241;52.684;9.758;2022-11-15T03:57:02;4.93;;;4.40;;
5650;SDS011;40241;52.684;9.758;2022-11-15T03:59:27;6.50;;;4.60;;
5650;SDS011;40241;52.684;9.758;2022-11-15T04:01:53;4.83;;;4.03;;
5650;SDS011;40241;52.684;9.758;2022-11-15T04:04:18;4.13;;;3.40;;
5650;SDS011;40241;52.684;9.758;2022-11-15T04:06:44;4.70;;;4.27;;
5650;SDS011;40241;52.684;9.758;2022-11-15T04:09:09;5.27;;;4.27;;
5650;SDS011;40241;52.684;9.758;2022-11-15T04:11:35;6.27;;;4.97;;
5650;SDS011;40241;52.684;9.758;2022-11-15T04:14:00;6.60;;;5.10;;
5650;SDS011;40241;52.684;9.758;2022-11-15T04:16:26;5.90;;;4.67;;
5650;SDS011;40241;52.684;9.758;2022-11-15T04:18:51;5.20;;;4.70;;
5650;SDS011;40241;52.684;9.758;2022-11-15T04:21:36;6.73;;;4.30;;
5650;SDS011;40241;52.684;9.758;2022-11-15T04:24:21;5.20;;;3.80;;
5650;SDS011;40241;52.684;9.758;2022-11-15T04:26:46;4.07;;;3.70;;
5650;SDS011;40241;52.684;9.758;2022-11-15T04:29:12;4.60;;;4.10;;
5650;SDS011;40241;52.684;9.758;2022-11-15T04:31:55;4.30;;;3.83;;
5650;SDS011;40241;52.684;9.758;2022-11-15T04:34:21;5.73;;;5.03;;
5650;SDS011;40241;52.684;9.758;2022-11-15T04:36:47;8.50;;;4.67;;
5650;SDS011;40241;52.684;9.758;2022-11-15T04:39:31;5.03;;;3.83;;
5650;SDS011;40241;52.684;9.758;2022-11-15T04:41:56;5.63;;;4.27;;
5650;SDS011;40241;52.684;9.758;2022-11-15T04:44:21;5.77;;;4.30;;
5650;SDS011;40241;52.684;9.758;2022-11-15T04:46:47;4.80;;;4.27;;
5650;SDS011;40241;52.684;9.758;2022-11-15T04:49:12;6.37;;;4.70;;
5650;SDS011;40241;52.684;9.758;2022-11-15T04:51:38;4.73;;;4.10;;
5650;SDS011;40241;52.684;9.758;2022-11-15T04:54:04;7.50;;;4.40;;
5650;SDS011;40241;52.684;9.758;2022-11-15T04:56:29;5.27;;;4.33;;
5650;SDS011;40241;52.684;9.758;2022-11-15T04:58:55;5.20;;;4.63;;
5650;SDS011;40241;52.684;9.758;2022-11-15T05:01:20;4.47;;;3.80;;
5650;SDS011;40241;52.684;9.758;2022-11-15T05:03:46;5.87;;;4.70;;
5650;SDS011;40241;52.684;9.758;2022-11-15T05:06:30;9.83;;;4.70;;
5650;SDS011;40241;52.684;9.758;2022-11-15T05:08:56;5.70;;;4.27;;
5650;SDS011;40241;52.684;9.758;2022-11-15T05:11:22;5.67;;;4.97;;
5650;SDS011;40241;52.684;9.758;2022-11-15T05:13:48;7.80;;;4.87;;
5650;SDS011;40241;52.684;9.758;2022-11-15T05:16:14;8.10;;;5.27;;
5650;SDS011;40241;52.684;9.758;2022-11-15T05:18:39;6.00;;;4.53;;
5650;SDS011;40241;52.684;9.758;2022-11-15T05:21:09;5.27;;;4.53;;
5650;SDS011;40241;52.684;9.758;2022-11-15T05:23:36;5.60;;;4.47;;
5650;SDS011;40241;52.684;9.758;2022-11-15T05:26:03;5.83;;;5.07;;
5650;SDS011;40241;52.684;9.758;2022-11-15T05:28:29;4.90;;;4.37;;
5650;SDS011;40241;52.684;9.758;2022-11-15T05:33:28;6.00;;;4.77;;
5650;SDS011;40241;52.684;9.758;2022-11-15T05:35:59;5.50;;;4.43;;
5650;SDS011;40241;52.684;9.758;2022-11-15T05:38:28;4.77;;;4.13;;
5650;SDS011;40241;52.684;9.758;2022-11-15T05:40:54;4.90;;;4.07;;
5650;SDS011;40241;52.684;9.758;2022-11-15T05:43:20;5.53;;;4.37;;
5650;SDS011;40241;52.684;9.758;2022-11-15T05:45:46;5.50;;;4.77;;
5650;SDS011;40241;52.684;9.758;2022-11-15T05:48:11;5.77;;;4.60;;
5650;SDS011;40241;52.684;9.758;2022-11-15T05:50:38;4.77;;;4.30;;
5650;SDS011;40241;52.684;9.758;2022-11-15T05:53:08;5.27;;;4.77;;
5650;SDS011;40241;52.684;9.758;2022-11-15T05:55:37;5.50;;;4.37;;
5650;SDS011;40241;52.684;9.758;2022-11-15T05:58:03;4.70;;;4.20;;
5650;SDS011;40241;52.684;9.758;2022-11-15T06:00:29;4.57;;;4.17;;
5650;SDS011;40241;52.684;9.758;2022-11-15T06:02:55;4.47;;;3.83;;
5650;SDS011;40241;52.684;9.758;2022-11-15T06:05:20;9.03;;;4.77;;
5650;SDS011;40241;52.684;9.758;2022-11-15T06:07:46;4.93;;;4.37;;
5650;SDS011;40241;52.684;9.758;2022-11-15T06:10:11;5.40;;;4.13;;
5650;SDS011;40241;52.684;9.758;2022-11-15T06:12:37;4.50;;;4.07;;
5650;SDS011;40241;52.684;9.758;2022-11-15T06:15:02;4.57;;;4.17;;
5650;SDS011;40241;52.684;9.758;2022-11-15T06:17:28;6.07;;;4.60;;
5650;SDS011;40241;52.684;9.758;2022-11-15T06:19:54;5.13;;;4.63;;
5650;SDS011;40241;52.684;9.758;2022-11-15T06:22:19;4.27;;;3.50;;
5650;SDS011;40241;52.684;9.758;2022-11-15T06:24:45;5.00;;;4.17;;
5650;SDS011;40241;52.684;9.758;2022-11-15T06:27:11;4.37;;;4.00;;
5650;SDS011;40241;52.684;9.758;2022-11-15T06:29:36;5.53;;;5.00;;
5650;SDS011;40241;52.684;9.758;2022-11-15T06:32:02;7.97;;;3.93;;
5650;SDS011;40241;52.684;9.758;2022-11-15T06:34:27;7.90;;;4.53;;
5650;SDS011;40241;52.684;9.758;2022-11-15T06:36:53;4.87;;;4.47;;
5650;SDS011;40241;52.684;9.758;2022-11-15T06:39:18;6.47;;;4.77;;
5650;SDS011;40241;52.684;9.758;2022-11-15T06:41:44;4.40;;;4.10;;
5650;SDS011;40241;52.684;9.758;2022-11-15T06:44:09;4.43;;;4.03;;
5650;SDS011;40241;52.684;9.758;2022-11-15T06:46:35;5.93;;;4.03;;
5650;SDS011;40241;52.684;9.758;2022-11-15T06:49:00;5.63;;;4.87;;
5650;SDS011;40241;52.684;9.758;2022-11-15T06:51:26;6.90;;;4.30;;
5650;SDS011;40241;52.684;9.758;2022-11-15T06:53:51;11.17;;;3.93;;
5650;SDS011;40241;52.684;9.758;2022-11-15T06:56:17;4.10;;;3.70;;
5650;SDS011;40241;52.684;9.758;2022-11-15T06:58:42;4.03;;;3.63;;
5650;SDS011;40241;52.684;9.758;2022-11-15T07:01:09;4.87;;;4.37;;
5650;SDS011;40241;52.684;9.758;2022-11-15T07:03:39;6.30;;;3.57;;
5650;SDS011;40241;52.684;9.758;2022-11-15T07:06:06;5.00;;;3.77;;
5650;SDS011;40241;52.684;9.758;2022-11-15T07:08:33;3.90;;;3.60;;
5650;SDS011;40241;52.684;9.758;2022-11-15T07:11:00;4.03;;;3.50;;
5650;SDS011;40241;52.684;9.758;2022-11-15T07:13:28;5.83;;;4.33;;
5650;SDS011;40241;52.684;9.758;2022-11-15T07:15:55;4.00;;;3.70;;
5650;SDS011;40241;52.684;9.758;2022-11-15T07:18:21;4.10;;;3.70;;
5650;SDS011;40241;52.684;9.758;2022-11-15T07:20:48;4.67;;;3.30;;
5650;SDS011;40241;52.684;9.758;2022-11-15T07:23:13;4.27;;;3.63;;
5650;SDS011;40241;52.684;9.758;2022-11-15T07:25:39;3.97;;;3.50;;
5650;SDS011;40241;52.684;9.758;2022-11-15T07:28:04;4.50;;;3.57;;
5650;SDS011;40241;52.684;9.758;2022-11-15T07:30:30;3.37;;;3.07;;
5650;SDS011;40241;52.684;9.758;2022-11-15T07:32:56;3.07;;;2.77;;
5650;SDS011;40241;52.684;9.758;2022-11-15T07:35:23;4.43;;;3.87;;
5650;SDS011;40241;52.684;9.758;2022-11-15T07:37:53;4.37;;;3.97;;
5650;SDS011;40241;52.684;9.758;2022-11-15T07:40:20;4.10;;;3.47;;
5650;SDS011;40241;52.684;9.758;2022-11-15T07:42:46;4.23;;;3.40;;
5650;SDS011;40241;52.684;9.758;2022-11-15T07:45:17;4.07;;;3.47;;
5650;SDS011;40241;52.684;9.758;2022-11-15T07:47:46;3.30;;;3.00;;
5650;SDS011;40241;52.684;9.758;2022-11-15T07:50:12;3.60;;;3.30;;
5650;SDS011;40241;52.684;9.758;2022-11-15T07:52:38;4.33;;;3.23;;
5650;SDS011;40241;52.684;9.758;2022-11-15T07:55:03;4.60;;;3.37;;
5650;SDS011;40241;52.684;9.758;2022-11-15T07:57:29;3.77;;;3.47;;
5650;SDS011;40241;52.684;9.758;2022-11-15T07:59:55;3.70;;;3.40;;
5650;SDS011;40241;52.684;9.758;2022-11-15T08:02:20;2.90;;;2.70;;
5650;SDS011;40241;52.684;9.758;2022-11-15T08:04:46;4.13;;;3.20;;
5650;SDS011;40241;52.684;9.758;2022-11-15T08:07:11;3.40;;;3.10;;
5650;SDS011;40241;52.684;9.758;2022-11-15T08:09:37;12.40;;;3.60;;
5650;SDS011;40241;52.684;9.758;2022-11-15T08:12:02;4.83;;;2.87;;
5650;SDS011;40241;52.684;9.758;2022-11-15T08:14:28;3.70;;;3.40;;
5650;SDS011;40241;52.684;9.758;2022-11-15T08:16:56;3.50;;;3.20;;
5650;SDS011;40241;52.684;9.758;2022-11-15T08:19:22;3.03;;;2.83;;
5650;SDS011;40241;52.684;9.758;2022-11-15T08:21:47;2.83;;;2.63;;
5650;SDS011;40241;52.684;9.758;2022-11-15T08:24:13;3.43;;;3.13;;
5650;SDS011;40241;52.684;9.758;2022-11-15T08:26:39;3.10;;;2.90;;
5650;SDS011;40241;52.684;9.758;2022-11-15T08:29:05;3.77;;;2.93;;
5650;SDS011;40241;52.684;9.758;2022-11-15T08:31:34;4.40;;;3.63;;
5650;SDS011;40241;52.684;9.758;2022-11-15T08:34:01;4.60;;;3.60;;
5650;SDS011;40241;52.684;9.758;2022-11-15T08:36:27;3.07;;;2.83;;
5650;SDS011;40241;52.684;9.758;2022-11-15T08:38:53;5.57;;;3.90;;
5650;SDS011;40241;52.684;9.758;2022-11-15T08:41:24;3.90;;;3.60;;
5650;SDS011;40241;52.684;9.758;2022-11-15T08:44:01;3.83;;;3.47;;
5650;SDS011;40241;52.684;9.758;2022-11-15T08:46:27;3.43;;;2.90;;
5650;SDS011;40241;52.684;9.758;2022-11-15T08:48:52;2.60;;;2.50;;
5650;SDS011;40241;52.684;9.758;2022-11-15T08:51:18;7.50;;;3.13;;
5650;SDS011;40241;52.684;9.758;2022-11-15T08:53:43;2.97;;;2.77;;
5650;SDS011;40241;52.684;9.758;2022-11-15T08:56:10;3.40;;;3.10;;
5650;SDS011;40241;52.684;9.758;2022-11-15T08:58:40;2.97;;;2.70;;
5650;SDS011;40241;52.684;9.758;2022-11-15T09:01:13;2.27;;;2.17;;
5650;SDS011;40241;52.684;9.758;2022-11-15T09:03:40;2.97;;;2.77;;
5650;SDS011;40241;52.684;9.758;2022-11-15T09:06:06;2.63;;;2.43;;
5650;SDS011;40241;52.684;9.758;2022-11-15T09:08:31;2.90;;;2.60;;
5650;SDS011;40241;52.684;9.758;2022-11-15T09:10:57;3.53;;;3.33;;
5650;SDS011;40241;52.684;9.758;2022-11-15T09:13:22;3.27;;;2.87;;
5650;SDS011;40241;52.684;9.758;2022-11-15T09:15:48;3.27;;;2.60;;
5650;SDS011;40241;52.684;9.758;2022-11-15T09:18:13;2.53;;;2.40;;
5650;SDS011;40241;52.684;9.758;2022-11-15T09:20:39;3.03;;;2.67;;
5650;SDS011;40241;52.684;9.758;2022-11-15T09:23:04;4.10;;;2.83;;
5650;SDS011;40241;52.684;9.758;2022-11-15T09:25:31;3.90;;;2.93;;
5650;SDS011;40241;52.684;9.758;2022-11-15T09:27:56;2.30;;;2.20;;
5650;SDS011;40241;52.684;9.758;2022-11-15T09:30:23;2.53;;;2.33;;
5650;SDS011;40241;52.684;9.758;2022-11-15T09:32:49;2.53;;;2.33;;
5650;SDS011;40241;52.684;9.758;2022-11-15T09:35:14;2.97;;;2.47;;
5650;SDS011;40241;52.684;9.758;2022-11-15T09:37:40;7.90;;;3.10;;
5650;SDS011;40241;52.684;9.758;2022-11-15T09:40:06;3.00;;;2.50;;
5650;SDS011;40241;52.684;9.758;2022-11-15T09:42:49;2.63;;;2.40;;
5650;SDS011;40241;52.684;9.758;2022-11-15T09:45:32;2.67;;;2.47;;
5650;SDS011;40241;52.684;9.758;2022-11-15T09:48:13;3.00;;;2.80;;
5650;SDS011;40241;52.684;9.758;2022-11-15T09:50:43;3.37;;;2.30;;
5650;SDS011;40241;52.684;9.758;2022-11-15T09:53:13;2.53;;;2.33;;
5650;SDS011;40241;52.684;9.758;2022-11-15T09:55:59;3.57;;;2.73;;
5650;SDS011;40241;52.684;9.758;2022-11-15T10:04:15;2.90;;;2.50;;
5650;SDS011;40241;52.684;9.758;2022-11-15T10:06:43;3.37;;;1.83;;
5650;SDS011;40241;52.684;9.758;2022-11-15T10:09:27;2.13;;;2.03;;
5650;SDS011;40241;52.684;9.758;2022-11-15T10:11:59;2.23;;;2.13;;
5650;SDS011;40241;52.684;9.758;2022-11-15T10:14:25;2.53;;;2.33;;
5650;SDS011;40241;52.684;9.758;2022-11-15T10:22:12;2.40;;;2.20;;
5650;SDS011;40241;52.684;9.758;2022-11-15T10:27:33;2.07;;;1.93;;
5650;SDS011;40241;52.684;9.758;2022-11-15T10:29:59;2.93;;;2.30;;
5650;SDS011;40241;52.684;9.758;2022-11-15T10:32:24;2.13;;;2.00;;
5650;SDS011;40241;52.684;9.758;2022-11-15T10:34:50;2.63;;;2.40;;
5650;SDS011;40241;52.684;9.758;2022-11-15T10:37:29;2.50;;;2.23;;
5650;SDS011;40241;52.684;9.758;2022-11-15T10:40:05;2.30;;;2.10;;
5650;SDS011;40241;52.684;9.758;2022-11-15T10:42:39;2.40;;;2.20;;
5650;SDS011;40241;52.684;9.758;2022-11-15T10:45:16;2.07;;;1.97;;
5650;SDS011;40241;52.684;9.758;2022-11-15T10:47:49;5.93;;;1.80;;
5650;SDS011;40241;52.684;9.758;2022-11-15T10:50:33;6.83;;;2.50;;
5650;SDS011;40241;52.684;9.758;2022-11-15T10:52:58;2.47;;;1.93;;
5650;SDS011;40241;52.684;9.758;2022-11-15T10:55:28;2.30;;;2.03;;
5650;SDS011;40241;52.684;9.758;2022-11-15T10:58:02;1.80;;;1.70;;
5650;SDS011;40241;52.684;9.758;2022-11-15T11:00:44;2.03;;;1.93;;
5650;SDS011;40241;52.684;9.758;2022-11-15T11:03:28;3.00;;;1.67;;
5650;SDS011;40241;52.684;9.758;2022-11-15T11:06:07;1.77;;;1.67;;
5650;SDS011;40241;52.684;9.758;2022-11-15T11:08:33;3.10;;;1.80;;
5650;SDS011;40241;52.684;9.758;2022-11-15T11:11:00;12.23;;;1.90;;
5650;SDS011;40241;52.684;9.758;2022-11-15T11:13:30;1.53;;;1.43;;
5650;SDS011;40241;52.684;9.758;2022-11-15T11:19:02;2.43;;;2.10;;
5650;SDS011;40241;52.684;9.758;2022-11-15T11:21:53;2.23;;;1.90;;
5650;SDS011;40241;52.684;9.758;2022-11-15T11:24:36;3.10;;;2.20;;
5650;SDS011;40241;52.684;9.758;2022-11-15T11:30:02;3.73;;;2.07;;
5650;SDS011;40241;52.684;9.758;2022-11-15T11:40:42;1.53;;;1.43;;
5650;SDS011;40241;52.684;9.758;2022-11-15T11:43:18;1.63;;;1.47;;
5650;SDS011;40241;52.684;9.758;2022-11-15T11:46:06;1.43;;;1.33;;
5650;SDS011;40241;52.684;9.758;2022-11-15T11:48:41;1.60;;;1.50;;
5650;SDS011;40241;52.684;9.758;2022-11-15T11:51:13;2.20;;;1.37;;
5650;SDS011;40241;52.684;9.758;2022-11-15T11:56:27;1.77;;;1.43;;
5650;SDS011;40241;52.684;9.758;2022-11-15T12:02:08;1.20;;;1.10;;
5650;SDS011;40241;52.684;9.758;2022-11-15T12:04:42;1.60;;;1.50;;
5650;SDS011;40241;52.684;9.758;2022-11-15T12:07:25;1.70;;;1.60;;
5650;SDS011;40241;52.684;9.758;2022-11-15T12:10:03;1.63;;;1.53;;
5650;SDS011;40241;52.684;9.758;2022-11-15T12:15:27;2.60;;;1.30;;
5650;SDS011;40241;52.684;9.758;2022-11-15T12:17:57;1.60;;;1.50;;
5650;SDS011;40241;52.684;9.758;2022-11-15T12:20:26;1.87;;;1.77;;
5650;SDS011;40241;52.684;9.758;2022-11-15T12:25:46;1.60;;;1.50;;
5650;SDS011;40241;52.684;9.758;2022-11-15T12:28:50;2.60;;;1.70;;
5650;SDS011;40241;52.684;9.758;2022-11-15T12:34:00;1.77;;;1.37;;
5650;SDS011;40241;52.684;9.758;2022-11-15T12:36:35;1.50;;;1.40;;
5650;SDS011;40241;52.684;9.758;2022-11-15T12:41:34;2.23;;;1.63;;
5650;SDS011;40241;52.684;9.758;2022-11-15T12:44:05;2.27;;;1.97;;
5650;SDS011;40241;52.684;9.758;2022-11-15T13:02:48;4.63;;;1.40;;
5650;SDS011;40241;52.684;9.758;2022-11-15T13:10:28;1.20;;;1.20;;
5650;SDS011;40241;52.684;9.758;2022-11-15T13:12:58;2.07;;;1.20;;
5650;SDS011;40241;52.684;9.758;2022-11-15T13:20:54;1.27;;;1.17;;
5650;SDS011;40241;52.684;9.758;2022-11-15T13:23:20;2.27;;;1.53;;
5650;SDS011;40241;52.684;9.758;2022-11-15T13:28:39;1.97;;;1.33;;
5650;SDS011;40241;52.684;9.758;2022-11-15T13:34:16;2.83;;;1.57;;
5650;SDS011;40241;52.684;9.758;2022-11-15T13:36:42;1.40;;;1.30;;
5650;SDS011;40241;52.684;9.758;2022-11-15T13:41:57;1.20;;;1.20;;
5650;SDS011;40241;52.684;9.758;2022-11-15T13:44:25;2.03;;;1.40;;
5650;SDS011;40241;52.684;9.758;2022-11-15T13:47:06;1.50;;;1.40;;
5650;SDS011;40241;52.684;9.758;2022-11-15T13:49:32;1.27;;;1.20;;
5650;SDS011;40241;52.684;9.758;2022-11-15T13:52:02;1.30;;;1.20;;
5650;SDS011;40241;52.684;9.758;2022-11-15T13:54:35;2.23;;;1.67;;
5650;SDS011;40241;52.684;9.758;2022-11-15T13:57:22;1.10;;;1.00;;
5650;SDS011;40241;52.684;9.758;2022-11-15T13:59:53;1.90;;;1.17;;
5650;SDS011;40241;52.684;9.758;2022-11-15T14:02:24;1.40;;;1.30;;
5650;SDS011;40241;52.684;9.758;2022-11-15T14:04:55;3.03;;;1.33;;
5650;SDS011;40241;52.684;9.758;2022-11-15T14:07:39;1.00;;;1.00;;
5650;SDS011;40241;52.684;9.758;2022-11-15T14:10:24;2.13;;;1.53;;
5650;SDS011;40241;52.684;9.758;2022-11-15T14:12:54;1.30;;;1.20;;
5650;SDS011;40241;52.684;9.758;2022-11-15T14:15:33;3.43;;;1.20;;
5650;SDS011;40241;52.684;9.758;2022-11-15T14:18:00;1.60;;;1.33;;
5650;SDS011;40241;52.684;9.758;2022-11-15T14:20:31;1.73;;;1.63;;
5650;SDS011;40241;52.684;9.758;2022-11-15T14:23:02;1.30;;;1.20;;
5650;SDS011;40241;52.684;9.758;2022-11-15T14:25:51;1.03;;;1.03;;
5650;SDS011;40241;52.684;9.758;2022-11-15T14:30:50;1.03;;;1.03;;
5650;SDS011;40241;52.684;9.758;2022-11-15T14:33:24;1.30;;;1.20;;
5650;SDS011;40241;52.684;9.758;2022-11-15T14:35:55;1.30;;;1.20;;
5650;SDS011;40241;52.684;9.758;2022-11-15T14:38:22;1.43;;;1.23;;
5650;SDS011;40241;52.684;9.758;2022-11-15T14:40:48;5.30;;;1.37;;
5650;SDS011;40241;52.684;9.758;2022-11-15T14:43:14;1.43;;;1.33;;
5650;SDS011;40241;52.684;9.758;2022-11-15T14:45:39;1.10;;;1.00;;
5650;SDS011;40241;52.684;9.758;2022-11-15T14:48:05;1.10;;;1.00;;
5650;SDS011;40241;52.684;9.758;2022-11-15T14:50:32;0.90;;;0.90;;
5650;SDS011;40241;52.684;9.758;2022-11-15T14:52:58;1.47;;;1.37;;
5650;SDS011;40241;52.684;9.758;2022-11-15T14:55:25;1.30;;;1.20;;
5650;SDS011;40241;52.684;9.758;2022-11-15T14:57:57;1.67;;;1.57;;
5650;SDS011;40241;52.684;9.758;2022-11-15T15:00:23;1.73;;;1.37;;
5650;SDS011;40241;52.684;9.758;2022-11-15T15:02:50;2.93;;;1.30;;
5650;SDS011;40241;52.684;9.758;2022-11-15T15:05:24;2.00;;;1.40;;
5650;SDS011;40241;52.684;9.758;2022-11-15T15:07:54;2.20;;;1.30;;
5650;SDS011;40241;52.684;9.758;2022-11-15T15:10:20;1.60;;;1.50;;
5650;SDS011;40241;52.684;9.758;2022-11-15T15:12:46;1.20;;;1.03;;
5650;SDS011;40241;52.684;9.758;2022-11-15T15:15:15;1.87;;;1.30;;
5650;SDS011;40241;52.684;9.758;2022-11-15T15:17:43;2.00;;;1.40;;
5650;SDS011;40241;52.684;9.758;2022-11-15T15:20:09;2.03;;;1.43;;
5650;SDS011;40241;52.684;9.758;2022-11-15T15:22:35;0.90;;;0.90;;
5650;SDS011;40241;52.684;9.758;2022-11-15T15:25:02;2.57;;;1.13;;
5650;SDS011;40241;52.684;9.758;2022-11-15T15:27:29;1.40;;;1.17;;
5650;SDS011;40241;52.684;9.758;2022-11-15T15:29:54;1.40;;;1.27;;
5650;SDS011;40241;52.684;9.758;2022-11-15T15:32:20;1.27;;;1.17;;
5650;SDS011;40241;52.684;9.758;2022-11-15T15:34:46;1.27;;;1.20;;
5650;SDS011;40241;52.684;9.758;2022-11-15T15:39:48;3.07;;;1.70;;
5650;SDS011;40241;52.684;9.758;2022-11-15T15:42:14;1.30;;;1.20;;
5650;SDS011;40241;52.684;9.758;2022-11-15T15:44:40;1.63;;;1.43;;
5650;SDS011;40241;52.684;9.758;2022-11-15T15:47:22;2.17;;;1.30;;
5650;SDS011;40241;52.684;9.758;2022-11-15T15:49:48;1.50;;;1.40;;
5650;SDS011;40241;52.684;9.758;2022-11-15T15:52:15;1.80;;;1.70;;
5650;SDS011;40241;52.684;9.758;2022-11-15T15:54:41;1.57;;;1.47;;
5650;SDS011;40241;52.684;9.758;2022-11-15T15:57:07;2.13;;;1.40;;
5650;SDS011;40241;52.684;9.758;2022-11-15T15:59:33;1.17;;;1.07;;
5650;SDS011;40241;52.684;9.758;2022-11-15T16:01:59;1.30;;;1.20;;
5650;SDS011;40241;52.684;9.758;2022-11-15T16:04:25;1.77;;;1.67;;
5650;SDS011;40241;52.684;9.758;2022-11-15T16:06:51;1.57;;;1.47;;
5650;SDS011;40241;52.684;9.758;2022-11-15T16:09:18;1.47;;;1.37;;
5650;SDS011;40241;52.684;9.758;2022-11-15T16:12:04;1.33;;;1.30;;
5650;SDS011;40241;52.684;9.758;2022-11-15T16:14:30;1.50;;;1.33;;
5650;SDS011;40241;52.684;9.758;2022-11-15T16:16:56;1.20;;;1.20;;
5650;SDS011;40241;52.684;9.758;2022-11-15T16:19:22;1.50;;;1.40;;
5650;SDS011;40241;52.684;9.758;2022-11-15T16:21:47;1.50;;;1.40;;
5650;SDS011;40241;52.684;9.758;2022-11-15T16:24:13;1.67;;;1.57;;
5650;SDS011;40241;52.684;9.758;2022-11-15T16:26:38;1.90;;;1.80;;
5650;SDS011;40241;52.684;9.758;2022-11-15T16:29:04;1.40;;;1.30;;
5650;SDS011;40241;52.684;9.758;2022-11-15T16:31:31;2.37;;;1.17;;
5650;SDS011;40241;52.684;9.758;2022-11-15T16:33:57;1.70;;;1.60;;
5650;SDS011;40241;52.684;9.758;2022-11-15T16:36:25;2.13;;;1.37;;
5650;SDS011;40241;52.684;9.758;2022-11-15T16:38:52;1.60;;;1.50;;
5650;SDS011;40241;52.684;9.758;2022-11-15T16:41:17;1.77;;;1.67;;
5650;SDS011;40241;52.684;9.758;2022-11-15T16:43:47;2.30;;;2.10;;
5650;SDS011;40241;52.684;9.758;2022-11-15T16:46:14;3.90;;;1.60;;
5650;SDS011;40241;52.684;9.758;2022-11-15T16:48:45;1.97;;;1.83;;
5650;SDS011;40241;52.684;9.758;2022-11-15T16:51:11;3.27;;;2.23;;
5650;SDS011;40241;52.684;9.758;2022-11-15T16:53:37;1.90;;;1.80;;
5650;SDS011;40241;52.684;9.758;2022-11-15T16:56:08;5.13;;;2.33;;
5650;SDS011;40241;52.684;9.758;2022-11-15T16:58:51;1.97;;;1.87;;
5650;SDS011;40241;52.684;9.758;2022-11-15T17:01:21;1.90;;;1.80;;
5650;SDS011;40241;52.684;9.758;2022-11-15T17:03:49;2.43;;;2.30;;
5650;SDS011;40241;52.684;9.758;2022-11-15T17:06:15;2.10;;;2.00;;
5650;SDS011;40241;52.684;9.758;2022-11-15T17:08:42;2.80;;;2.60;;